Time;durP1;ratioP1;P1;durP2;ratioP2;P2;SDS_P1;SDS_P2;PMS_P1;PMS_P2;Temp;Humidity;BMP_temperature;BMP_pressure;BME280_temperature;BME280_humidity;BME280_pressure;Samples;Min_cycle;Max_cycle;Signal;HPM_P1;HPM_P2
2022/10/12 00:01:13;;;;;;;15.07;10.88;;;13.20;99.90;;;;;;5041924;28;20443;-69
2022/10/12 00:03:39;;;;;;;12.95;10.32;;;13.10;99.90;;;;;;5031405;28;20383;-69
2022/10/12 00:06:08;;;;;;;14.90;10.53;;;13.20;99.90;;;;;;5040244;28;20862;-69
2022/10/12 00:08:36;;;;;;;14.13;10.18;;;13.20;99.90;;;;;;5036178;28;20394;-69
2022/10/12 00:11:03;;;;;;;15.30;10.40;;;13.30;99.90;;;;;;5051180;28;20443;-69
2022/10/12 00:13:29;;;;;;;14.18;10.02;;;13.30;99.90;;;;;;5041946;28;20467;-69
2022/10/12 00:15:54;;;;;;;11.73;10.52;;;13.30;99.90;;;;;;5036947;28;20395;-69
2022/10/12 00:18:20;;;;;;;14.57;10.03;;;13.30;99.90;;;;;;5039702;28;20441;-69
2022/10/12 00:20:45;;;;;;;14.38;10.45;;;13.30;99.90;;;;;;5045240;28;20405;-69
2022/10/12 00:23:11;;;;;;;16.60;10.13;;;13.30;99.90;;;;;;5052499;28;20444;-69
2022/10/12 00:25:39;;;;;;;11.50;10.30;;;13.40;99.90;;;;;;5052757;28;20455;-69
2022/10/12 00:28:05;;;;;;;14.07;10.95;;;13.40;99.90;;;;;;5052830;28;20468;-69
2022/10/12 00:30:32;;;;;;;15.43;10.45;;;13.40;99.90;;;;;;5050973;28;20381;-69
2022/10/12 00:32:57;;;;;;;14.93;10.27;;;13.40;99.90;;;;;;5050449;28;20581;-69
2022/10/12 00:35:23;;;;;;;16.80;11.77;;;13.40;99.90;;;;;;5050198;28;20488;-69
2022/10/12 00:37:55;;;;;;;14.27;11.80;;;13.50;99.90;;;;;;5051550;28;20991;-68
2022/10/12 00:40:21;;;;;;;18.55;10.90;;;13.50;99.90;;;;;;5051080;28;20765;-69
2022/10/12 00:42:48;;;;;;;11.15;9.85;;;13.40;99.90;;;;;;5050915;28;20795;-69
2022/10/12 00:45:14;;;;;;;11.40;7.20;;;13.40;99.90;;;;;;5051252;28;20512;-69
2022/10/12 00:47:47;;;;;;;8.52;7.28;;;13.40;99.90;;;;;;5050927;28;20390;-69
2022/10/12 00:50:32;;;;;;;10.75;7.00;;;13.50;99.90;;;;;;5050941;28;20378;-69
2022/10/12 00:53:13;;;;;;;8.35;5.28;;;13.40;99.90;;;;;;5050676;28;20468;-69
2022/10/12 00:55:46;;;;;;;9.23;5.70;;;13.30;99.90;;;;;;5051273;28;20381;-69
2022/10/12 00:58:12;;;;;;;9.35;5.28;;;13.10;99.90;;;;;;5033635;28;20394;-69
2022/10/12 01:00:39;;;;;;;8.55;4.90;;;13.20;99.90;;;;;;5051594;28;20402;-69
2022/10/12 01:03:08;;;;;;;7.07;4.43;;;13.20;99.90;;;;;;5051349;28;20425;-69
2022/10/12 01:05:34;;;;;;;5.00;3.90;;;13.30;99.90;;;;;;5033637;28;20437;-69
2022/10/12 01:08:01;;;;;;;8.95;5.45;;;13.20;99.90;;;;;;5051809;28;20386;-69
2022/10/12 01:10:27;;;;;;;9.18;5.38;;;13.10;99.90;;;;;;5051824;28;20950;-69
2022/10/12 01:12:52;;;;;;;9.43;5.35;;;13.20;99.90;;;;;;5051332;28;20393;-69
2022/10/12 01:15:18;;;;;;;8.63;5.03;;;13.00;99.90;;;;;;5051906;28;20409;-69
2022/10/12 01:17:59;;;;;;;8.30;5.00;;;12.90;99.90;;;;;;5051992;28;20391;-68
2022/10/12 01:20:24;;;;;;;7.22;4.55;;;13.00;99.90;;;;;;5052138;28;20393;-69
2022/10/12 01:23:02;;;;;;;10.10;5.40;;;13.00;99.90;;;;;;5052619;28;20536;-69
2022/10/12 01:25:57;;;;;;;8.27;4.60;;;12.90;99.90;;;;;;5051970;28;20962;-69
2022/10/12 01:28:57;;;;;;;8.77;5.18;;;12.90;99.90;;;;;;5052153;28;20391;-69
2022/10/12 01:31:48;;;;;;;5.60;4.28;;;13.00;99.90;;;;;;5052381;28;20468;-69
2022/10/12 01:34:38;;;;;;;6.63;5.10;;;12.80;99.90;;;;;;5051520;28;20388;-69
2022/10/12 01:37:14;;;;;;;7.68;4.72;;;12.80;99.90;;;;;;5052312;28;20496;-69
2022/10/12 01:39:55;;;;;;;8.73;4.88;;;12.80;99.90;;;;;;5051967;28;20539;-69
2022/10/12 01:42:27;;;;;;;7.45;5.15;;;12.70;99.90;;;;;;5033139;28;20402;-69
2022/10/12 01:45:14;;;;;;;10.55;5.45;;;12.70;99.90;;;;;;5051371;28;20432;-69
2022/10/12 01:47:43;;;;;;;8.40;4.90;;;12.70;99.90;;;;;;5049570;28;20395;-68
2022/10/12 01:50:12;;;;;;;9.45;5.05;;;12.70;99.90;;;;;;5041012;28;20447;-69
2022/10/12 01:53:11;;;;;;;7.78;4.80;;;12.70;99.90;;;;;;5043296;28;20403;-68
2022/10/12 01:55:50;;;;;;;9.18;5.70;;;12.80;99.90;;;;;;5025296;28;20522;-69
2022/10/12 01:58:29;;;;;;;9.63;5.93;;;12.70;99.90;;;;;;5041538;28;20922;-69
2022/10/12 02:01:31;;;;;;;7.80;6.10;;;12.80;99.90;;;;;;5043351;28;20405;-68
2022/10/12 02:04:10;;;;;;;10.10;8.00;;;12.90;99.90;;;;;;5044491;28;20412;-69
2022/10/12 02:06:45;;;;;;;11.97;8.40;;;13.00;99.90;;;;;;5045350;28;20758;-69
2022/10/12 02:09:34;;;;;;;11.23;8.40;;;13.00;99.90;;;;;;5046776;28;20407;-69
2022/10/12 02:12:10;;;;;;;9.90;8.05;;;13.00;99.90;;;;;;5028252;28;20446;-69
2022/10/12 02:14:40;;;;;;;13.15;10.18;;;13.10;99.90;;;;;;5049602;28;20818;-69
2022/10/12 02:17:11;;;;;;;12.20;10.90;;;13.10;99.90;;;;;;5027441;28;20396;-69
2022/10/12 02:19:40;;;;;;;14.93;11.65;;;13.10;99.90;;;;;;5054923;28;20823;-68
2022/10/12 02:22:07;;;;;;;13.30;11.57;;;13.20;99.90;;;;;;5050324;28;20382;-68
2022/10/12 02:24:36;;;;;;;14.50;11.40;;;13.20;99.90;;;;;;5054179;28;20416;-68
2022/10/12 02:27:02;;;;;;;14.13;10.50;;;13.20;99.90;;;;;;5053567;28;20409;-68
2022/10/12 02:29:33;;;;;;;12.65;9.70;;;13.10;99.90;;;;;;5039972;28;20400;-68
2022/10/12 02:32:06;;;;;;;13.55;9.77;;;13.20;99.90;;;;;;5036972;28;20391;-69
2022/10/12 02:34:43;;;;;;;15.60;10.90;;;13.20;99.90;;;;;;5032459;28;20379;-69
2022/10/12 02:37:20;;;;;;;16.20;12.10;;;13.30;99.90;;;;;;5039087;28;20402;-68
2022/10/12 02:39:53;;;;;;;17.15;10.85;;;13.40;99.90;;;;;;5049495;28;20437;-68
2022/10/12 02:42:25;;;;;;;11.10;10.00;;;13.30;99.90;;;;;;5041914;28;20394;-69
2022/10/12 02:44:54;;;;;;;12.50;8.57;;;13.20;99.90;;;;;;5036121;28;20413;-69
2022/10/12 02:47:22;;;;;;;13.38;9.07;;;13.00;99.90;;;;;;5042141;28;20389;-69
2022/10/12 02:49:49;;;;;;;11.40;8.73;;;13.00;99.90;;;;;;5036423;28;20394;-69
2022/10/12 02:52:14;;;;;;;10.03;9.03;;;13.00;99.90;;;;;;5036969;28;20395;-68
2022/10/12 02:54:40;;;;;;;9.40;7.87;;;13.00;99.90;;;;;;5040493;28;20414;-69
2022/10/12 02:57:05;;;;;;;9.20;6.13;;;13.00;99.90;;;;;;5039751;28;20498;-69
2022/10/12 02:59:31;;;;;;;7.78;6.07;;;13.10;99.90;;;;;;5032716;28;20760;-69
2022/10/12 03:01:56;;;;;;;8.75;5.80;;;13.10;99.90;;;;;;5037017;28;20403;-69
2022/10/12 03:04:22;;;;;;;7.60;6.10;;;12.80;99.90;;;;;;5041352;28;20405;-68
2022/10/12 03:06:47;;;;;;;10.80;7.93;;;12.80;99.90;;;;;;5038001;28;20806;-69
2022/10/12 03:09:13;;;;;;;13.77;9.70;;;12.90;99.90;;;;;;5047689;28;20397;-69
2022/10/12 03:11:42;;;;;;;13.27;9.60;;;12.90;99.90;;;;;;5046773;28;20841;-69
2022/10/12 03:14:10;;;;;;;14.70;10.73;;;12.90;99.90;;;;;;5043847;28;20887;-69
2022/10/12 03:16:36;;;;;;;13.80;10.13;;;12.90;99.90;;;;;;5034015;28;20398;-69
2022/10/12 03:19:01;;;;;;;13.82;10.52;;;12.90;99.90;;;;;;5051214;28;20424;-69
2022/10/12 03:21:27;;;;;;;16.00;11.00;;;12.90;99.90;;;;;;5041183;28;20451;-69
2022/10/12 03:23:52;;;;;;;14.43;11.43;;;12.80;99.90;;;;;;5037301;28;20395;-68
2022/10/12 03:26:18;;;;;;;15.33;11.17;;;12.80;99.90;;;;;;5035468;28;20931;-69
2022/10/12 03:28:43;;;;;;;15.70;11.60;;;12.80;99.90;;;;;;5041394;28;20401;-68
2022/10/12 03:31:09;;;;;;;12.33;11.03;;;12.80;99.90;;;;;;5050616;28;20441;-69
2022/10/12 03:33:34;;;;;;;12.53;10.90;;;12.80;99.90;;;;;;5040245;28;20383;-69
2022/10/12 03:36:00;;;;;;;13.67;11.03;;;12.80;99.90;;;;;;5032136;28;20567;-68
2022/10/12 03:38:25;;;;;;;14.32;11.38;;;12.80;99.90;;;;;;5036701;28;20403;-69
2022/10/12 03:40:51;;;;;;;13.73;11.50;;;12.70;99.90;;;;;;5040643;28;20896;-68
2022/10/12 03:43:17;;;;;;;13.47;11.00;;;12.80;99.90;;;;;;5043979;28;20407;-69
2022/10/12 03:45:42;;;;;;;12.30;10.07;;;12.80;99.90;;;;;;5040068;28;20405;-69
2022/10/12 03:48:08;;;;;;;15.95;10.80;;;12.80;99.90;;;;;;5039102;28;20397;-68
2022/10/12 03:50:34;;;;;;;14.73;10.90;;;12.70;99.90;;;;;;5040903;28;20468;-71
2022/10/12 03:53:02;;;;;;;13.48;10.18;;;12.70;99.90;;;;;;5040218;28;20438;-69
2022/10/12 03:55:27;;;;;;;12.80;10.40;;;12.60;99.90;;;;;;5046079;28;20518;-68
2022/10/12 03:57:53;;;;;;;12.47;10.90;;;12.60;99.90;;;;;;5043428;28;20453;-69
2022/10/12 04:00:18;;;;;;;14.43;10.97;;;12.50;99.90;;;;;;5052546;28;20389;-69
2022/10/12 04:02:44;;;;;;;13.93;12.23;;;12.50;99.90;;;;;;5050220;28;20502;-69
2022/10/12 04:05:09;;;;;;;15.18;11.70;;;12.30;99.90;;;;;;5044296;28;20932;-68
2022/10/12 04:07:35;;;;;;;13.80;11.68;;;12.30;99.90;;;;;;5032981;28;20387;-69
2022/10/12 04:10:01;;;;;;;12.17;10.30;;;12.40;99.90;;;;;;5039856;28;20409;-69
2022/10/12 04:12:26;;;;;;;12.40;10.17;;;12.50;99.90;;;;;;5039481;28;20516;-68
2022/10/12 04:14:52;;;;;;;16.03;10.80;;;12.40;99.90;;;;;;5042891;28;20385;-68
2022/10/12 04:17:17;;;;;;;11.88;10.18;;;12.50;99.90;;;;;;5032965;28;20398;-68
2022/10/12 04:19:43;;;;;;;14.37;10.50;;;12.60;99.90;;;;;;5031789;28;20758;-69
2022/10/12 04:22:09;;;;;;;13.77;10.23;;;12.50;99.90;;;;;;5070282;22;20911;-71
2022/10/12 04:24:35;;;;;;;11.15;10.00;;;12.60;99.90;;;;;;5089722;28;20382;-71
2022/10/12 04:27:00;;;;;;;10.73;9.00;;;12.40;99.90;;;;;;5086165;28;20884;-71
2022/10/12 04:29:26;;;;;;;11.40;9.87;;;12.30;99.90;;;;;;5079063;28;20873;-71
2022/10/12 04:31:51;;;;;;;11.23;9.37;;;12.20;99.90;;;;;;5085658;28;20429;-71
2022/10/12 04:34:17;;;;;;;14.55;9.30;;;12.30;99.90;;;;;;5069599;28;20403;-72
2022/10/12 04:36:42;;;;;;;12.50;9.80;;;12.20;99.90;;;;;;5069776;28;20497;-72
2022/10/12 04:39:08;;;;;;;10.43;9.23;;;12.30;99.90;;;;;;5052261;28;20397;-71
2022/10/12 04:41:34;;;;;;;12.43;10.00;;;12.20;99.90;;;;;;5065054;28;20423;-71
2022/10/12 04:43:59;;;;;;;10.98;9.57;;;12.20;99.90;;;;;;5069302;28;20400;-72
2022/10/12 04:46:25;;;;;;;10.50;9.15;;;12.30;99.90;;;;;;5069353;28;20769;-71
2022/10/12 04:48:50;;;;;;;11.03;9.30;;;12.30;99.90;;;;;;5066077;28;20429;-71
2022/10/12 04:51:16;;;;;;;11.17;10.00;;;12.10;99.90;;;;;;5064966;28;20431;-71
2022/10/12 04:53:41;;;;;;;12.37;10.20;;;12.20;99.90;;;;;;5059808;28;20456;-72
2022/10/12 04:56:07;;;;;;;11.82;10.40;;;12.10;99.90;;;;;;5051751;28;20878;-71
2022/10/12 04:58:33;;;;;;;13.30;10.63;;;12.10;99.90;;;;;;5069947;28;20441;-71
2022/10/12 05:00:59;;;;;;;13.77;10.95;;;12.00;99.90;;;;;;5075732;28;20423;-72
2022/10/12 05:03:24;;;;;;;13.20;11.00;;;12.00;99.90;;;;;;5060826;28;20414;-72
2022/10/12 05:05:50;;;;;;;13.55;10.70;;;12.00;99.90;;;;;;5062681;28;20397;-72
2022/10/12 05:08:16;;;;;;;13.73;10.83;;;12.00;99.90;;;;;;5066925;28;20404;-72
2022/10/12 05:10:41;;;;;;;14.30;9.97;;;12.10;99.90;;;;;;5066348;28;20410;-72
2022/10/12 05:13:07;;;;;;;13.87;10.20;;;12.00;99.90;;;;;;5061941;28;20490;-73
2022/10/12 05:15:32;;;;;;;13.05;9.95;;;12.10;99.90;;;;;;5067812;28;20418;-72
2022/10/12 05:17:58;;;;;;;11.82;9.90;;;12.20;99.90;;;;;;5067203;28;20404;-73
2022/10/12 05:20:24;;;;;;;11.17;9.70;;;12.20;99.90;;;;;;5068084;28;20434;-73
2022/10/12 05:22:49;;;;;;;10.20;9.00;;;12.10;99.90;;;;;;5068580;28;21327;-73
2022/10/12 05:25:15;;;;;;;11.90;9.70;;;12.00;99.90;;;;;;5072196;28;20407;-73
2022/10/12 05:27:41;;;;;;;11.68;9.52;;;12.00;99.90;;;;;;5063859;28;20404;-72
2022/10/12 05:30:07;;;;;;;12.20;9.48;;;12.00;99.90;;;;;;5065598;28;20410;-72
2022/10/12 05:32:33;;;;;;;10.80;9.30;;;12.10;99.90;;;;;;5065633;28;20391;-72
2022/10/12 05:34:58;;;;;;;11.20;9.30;;;12.10;99.90;;;;;;5071902;28;20415;-73
2022/10/12 05:37:24;;;;;;;12.60;9.33;;;12.10;99.90;;;;;;5072275;28;20419;-74
2022/10/12 05:39:50;;;;;;;11.98;10.70;;;12.00;99.90;;;;;;5053631;28;20434;-72
2022/10/12 05:42:16;;;;;;;13.38;9.90;;;11.90;99.90;;;;;;5054843;28;20856;-72
2022/10/12 05:44:42;;;;;;;12.13;10.35;;;12.00;99.90;;;;;;5052983;28;20413;-72
2022/10/12 05:47:08;;;;;;;12.50;10.52;;;12.00;99.90;;;;;;5035065;28;20515;-73
2022/10/12 05:49:33;;;;;;;13.40;9.90;;;12.00;99.90;;;;;;5070520;28;21249;-72
2022/10/12 05:51:59;;;;;;;10.60;9.13;;;12.00;99.90;;;;;;5072936;28;20566;-73
2022/10/12 05:54:25;;;;;;;11.68;9.77;;;12.00;99.90;;;;;;5067417;28;20790;-73
2022/10/12 05:56:50;;;;;;;11.73;10.07;;;12.00;99.90;;;;;;5066860;28;20401;-73
2022/10/12 05:59:16;;;;;;;13.30;10.47;;;12.10;99.90;;;;;;5066213;28;21048;-73
2022/10/12 06:01:41;;;;;;;11.48;9.60;;;12.00;99.90;;;;;;5062597;28;20400;-73
2022/10/12 06:04:07;;;;;;;14.27;9.20;;;11.90;99.90;;;;;;5055883;28;20403;-73
2022/10/12 06:06:33;;;;;;;10.63;9.52;;;11.90;99.90;;;;;;5051797;28;20443;-73
2022/10/12 06:08:58;;;;;;;12.63;11.07;;;11.90;99.90;;;;;;5066618;28;20415;-72
2022/10/12 06:11:24;;;;;;;13.57;10.43;;;12.00;99.90;;;;;;5043356;28;20403;-71
2022/10/12 06:13:50;;;;;;;12.57;9.70;;;12.10;99.90;;;;;;5056039;28;20511;-72
2022/10/12 06:16:15;;;;;;;10.03;9.00;;;12.20;99.90;;;;;;5062708;28;20409;-74
2022/10/12 06:18:42;;;;;;;15.27;10.70;;;12.10;99.90;;;;;;5066415;28;20399;-72
2022/10/12 06:21:07;;;;;;;11.70;10.02;;;12.10;99.90;;;;;;5071589;28;20426;-72
2022/10/12 06:23:34;;;;;;;13.00;9.90;;;12.10;99.90;;;;;;5065833;28;20413;-72
2022/10/12 06:26:00;;;;;;;10.40;9.30;;;12.20;99.90;;;;;;5068688;28;20396;-72
2022/10/12 06:28:25;;;;;;;10.63;9.43;;;12.20;99.90;;;;;;5074051;28;20464;-72
2022/10/12 06:30:56;;;;;;;10.13;9.13;;;12.20;99.90;;;;;;5067966;28;20480;-72
2022/10/12 06:33:23;;;;;;;10.80;8.43;;;12.20;99.90;;;;;;5149677;23;20463;-72
2022/10/12 06:35:49;;;;;;;10.77;9.13;;;12.20;99.90;;;;;;5003458;28;20394;-72
2022/10/12 06:38:14;;;;;;;11.00;8.90;;;12.30;99.90;;;;;;5021910;28;20391;-72
2022/10/12 06:40:40;;;;;;;9.88;8.88;;;12.30;99.90;;;;;;5024117;28;20419;-72
2022/10/12 06:43:06;;;;;;;10.32;9.23;;;12.20;99.90;;;;;;5011357;28;20389;-72
2022/10/12 06:45:32;;;;;;;13.30;8.73;;;12.20;99.90;;;;;;5007318;28;20413;-72
2022/10/12 06:47:57;;;;;;;13.38;9.55;;;12.20;99.90;;;;;;5010534;28;20385;-71
2022/10/12 06:50:25;;;;;;;10.67;9.30;;;12.30;99.90;;;;;;5011253;28;20818;-71
2022/10/12 06:52:51;;;;;;;9.90;8.90;;;12.30;99.90;;;;;;5016901;28;20401;-72
2022/10/12 06:55:17;;;;;;;11.00;9.25;;;12.30;99.90;;;;;;5009231;28;20417;-72
2022/10/12 06:57:42;;;;;;;10.50;8.53;;;12.40;99.90;;;;;;5011530;28;21125;-72
2022/10/12 07:00:08;;;;;;;10.37;9.27;;;12.40;99.90;;;;;;4992813;28;20982;-72
2022/10/12 07:02:36;;;;;;;10.40;8.60;;;12.50;99.90;;;;;;5009011;28;21839;-72
2022/10/12 07:05:01;;;;;;;9.57;8.60;;;12.50;99.90;;;;;;5011033;28;20492;-72
2022/10/12 07:07:31;;;;;;;11.65;9.18;;;12.40;99.90;;;;;;5011128;28;20871;-72
2022/10/12 07:09:57;;;;;;;12.63;8.80;;;12.50;99.90;;;;;;5010666;28;20396;-72
2022/10/12 07:12:22;;;;;;;10.57;8.85;;;12.60;99.90;;;;;;5010716;28;20388;-72
2022/10/12 07:14:48;;;;;;;9.10;8.20;;;12.50;99.90;;;;;;5010359;28;20480;-73
2022/10/12 07:17:13;;;;;;;8.77;7.83;;;12.60;99.90;;;;;;5010928;28;20385;-72
2022/10/12 07:19:39;;;;;;;8.52;7.57;;;12.60;99.90;;;;;;5010085;28;20894;-72
2022/10/12 07:22:05;;;;;;;8.45;7.53;;;12.70;99.90;;;;;;5010190;28;20401;-72
2022/10/12 07:24:35;;;;;;;8.10;7.30;;;12.70;99.90;;;;;;5009882;28;20443;-73
2022/10/12 07:27:06;;;;;;;8.00;7.30;;;12.90;99.90;;;;;;5011139;28;20435;-73
2022/10/12 07:29:33;;;;;;;7.60;6.80;;;12.90;99.90;;;;;;5010602;28;20416;-73
2022/10/12 07:31:59;;;;;;;9.40;7.03;;;13.00;99.90;;;;;;5010034;28;20389;-73
2022/10/12 07:34:26;;;;;;;7.53;6.72;;;13.00;99.90;;;;;;5010155;28;20476;-72
2022/10/12 07:36:51;;;;;;;7.05;6.40;;;13.20;99.90;;;;;;5009966;28;20400;-72
2022/10/12 07:39:17;;;;;;;8.63;6.17;;;13.30;99.90;;;;;;5010202;28;20431;-72
2022/10/12 07:41:43;;;;;;;6.80;6.13;;;13.30;99.90;;;;;;5010130;28;20381;-72
2022/10/12 07:44:09;;;;;;;7.30;6.60;;;13.00;99.90;;;;;;5009929;28;20389;-73
2022/10/12 07:46:35;;;;;;;7.00;6.30;;;13.20;99.90;;;;;;4993159;28;20432;-72
2022/10/12 07:49:01;;;;;;;6.25;5.75;;;13.30;99.90;;;;;;5010556;28;20420;-72
2022/10/12 07:51:27;;;;;;;7.13;6.40;;;13.40;99.90;;;;;;5010452;28;20376;-75
2022/10/12 07:53:52;;;;;;;6.35;5.68;;;13.40;99.90;;;;;;5009976;28;20396;-73
2022/10/12 07:56:18;;;;;;;8.25;5.68;;;13.40;99.90;;;;;;5009630;28;20534;-72
2022/10/12 07:58:48;;;;;;;6.27;5.30;;;13.50;99.90;;;;;;5010095;28;20396;-72
2022/10/12 08:01:18;;;;;;;8.48;7.30;;;13.70;99.90;;;;;;5010000;28;20460;-72
2022/10/12 08:03:44;;;;;;;9.00;6.95;;;13.80;99.90;;;;;;5009305;28;20476;-72
2022/10/12 08:06:16;;;;;;;8.40;6.97;;;13.70;99.90;;;;;;5009689;28;20496;-72
2022/10/12 08:08:42;;;;;;;9.70;8.20;;;13.60;99.90;;;;;;5009705;28;20423;-72
2022/10/12 08:11:09;;;;;;;9.23;7.82;;;13.90;99.90;;;;;;5009539;28;20385;-71
2022/10/12 08:13:35;;;;;;;9.98;8.40;;;13.90;99.90;;;;;;5009394;28;20385;-71
2022/10/12 08:16:02;;;;;;;10.93;9.40;;;13.90;99.90;;;;;;5010056;28;20401;-72
2022/10/12 08:18:28;;;;;;;14.35;8.93;;;13.90;99.90;;;;;;5010172;28;20903;-72
2022/10/12 08:20:53;;;;;;;9.60;8.43;;;13.80;99.90;;;;;;5010262;28;20392;-72
2022/10/12 08:23:19;;;;;;;11.53;9.33;;;13.90;99.90;;;;;;5009855;28;20401;-72
2022/10/12 08:25:57;;;;;;;11.93;8.65;;;13.90;99.90;;;;;;5006774;28;20794;-72
2022/10/12 08:28:23;;;;;;;10.00;8.30;;;14.10;99.90;;;;;;5012344;28;20978;-71
2022/10/12 08:30:49;;;;;;;9.80;8.80;;;14.10;99.90;;;;;;5009832;28;20411;-71
2022/10/12 08:33:16;;;;;;;10.70;9.60;;;14.10;99.90;;;;;;4993135;28;20453;-71
2022/10/12 08:35:43;;;;;;;12.73;8.82;;;14.10;99.90;;;;;;5002534;28;20426;-72
2022/10/12 08:38:10;;;;;;;11.63;9.73;;;14.10;99.90;;;;;;5009907;28;20396;-72
2022/10/12 08:41:03;;;;;;;11.60;9.40;;;14.10;99.90;;;;;;5010000;28;20420;-71
2022/10/12 08:43:46;;;;;;;10.50;8.82;;;14.10;99.90;;;;;;5010035;28;20384;-70
2022/10/12 08:46:12;;;;;;;11.25;9.32;;;14.10;99.90;;;;;;5010179;28;20491;-71
2022/10/12 08:48:53;;;;;;;11.98;9.55;;;14.20;99.90;;;;;;5010345;28;20531;-72
2022/10/12 08:51:22;;;;;;;10.77;9.57;;;14.20;99.90;;;;;;5010498;28;20744;-71
2022/10/12 08:53:56;;;;;;;13.48;9.90;;;14.20;99.90;;;;;;4991867;28;20455;-72
2022/10/12 08:56:22;;;;;;;11.32;9.70;;;14.30;99.90;;;;;;5013276;28;20897;-71
2022/10/12 08:58:51;;;;;;;11.50;9.90;;;14.20;99.90;;;;;;5014208;28;20393;-71
2022/10/12 09:01:36;;;;;;;12.10;9.20;;;14.30;99.90;;;;;;5014311;28;20396;-72
2022/10/12 09:04:16;;;;;;;14.90;8.93;;;14.40;99.90;;;;;;5014196;28;20384;-71
2022/10/12 09:07:07;;;;;;;9.95;8.93;;;14.40;99.90;;;;;;5013777;28;20408;-71
2022/10/12 09:09:47;;;;;;;11.07;8.55;;;14.50;99.90;;;;;;5013881;28;20416;-71
2022/10/12 09:12:58;;;;;;;11.90;9.00;;;14.60;99.90;;;;;;5014187;28;20393;-72
2022/10/12 09:15:39;;;;;;;11.13;9.27;;;14.60;99.90;;;;;;5014026;28;20389;-72
2022/10/12 09:18:34;;;;;;;12.25;9.25;;;14.50;99.90;;;;;;5013501;28;20534;-73
2022/10/12 09:21:06;;;;;;;10.90;9.15;;;14.60;99.90;;;;;;5013428;28;20397;-72
2022/10/12 09:23:38;;;;;;;11.38;8.88;;;14.80;99.90;;;;;;4976873;28;20407;-71
2022/10/12 09:26:18;;;;;;;12.38;9.63;;;15.00;99.90;;;;;;4993959;28;20409;-72
2022/10/12 09:28:53;;;;;;;10.90;8.63;;;15.00;99.90;;;;;;4994189;28;20955;-71
2022/10/12 09:31:46;;;;;;;11.52;8.65;;;15.10;99.90;;;;;;4994214;28;20383;-71
2022/10/12 09:34:11;;;;;;;11.93;8.80;;;15.20;99.90;;;;;;4993818;28;20749;-72
2022/10/12 09:36:39;;;;;;;9.70;7.90;;;15.20;99.90;;;;;;5004938;28;20411;-72
2022/10/12 09:39:29;;;;;;;10.50;8.70;;;15.30;99.90;;;;;;5013617;28;20404;-72
2022/10/12 09:41:55;;;;;;;10.57;8.45;;;15.30;99.90;;;;;;5013130;28;20411;-72
2022/10/12 09:44:33;;;;;;;9.80;8.27;;;15.50;99.90;;;;;;5013035;28;20384;-72
2022/10/12 09:47:19;;;;;;;11.43;8.60;;;15.60;99.90;;;;;;5013235;28;20883;-72
2022/10/12 09:49:49;;;;;;;12.52;8.55;;;15.40;99.90;;;;;;5002459;28;20447;-72
2022/10/12 09:52:20;;;;;;;9.50;8.20;;;15.40;99.90;;;;;;5012649;28;20446;-72
2022/10/12 09:55:13;;;;;;;10.65;8.10;;;15.40;99.90;;;;;;5012766;28;20400;-72
2022/10/12 09:57:40;;;;;;;11.35;8.77;;;15.10;99.90;;;;;;4995186;28;20389;-72
2022/10/12 10:00:26;;;;;;;11.35;9.20;;;15.40;99.90;;;;;;5012853;28;20397;-72
2022/10/12 10:03:02;;;;;;;9.75;7.57;;;15.50;99.90;;;;;;5012773;28;20381;-72
2022/10/12 10:05:30;;;;;;;11.32;8.30;;;15.50;99.90;;;;;;4995024;28;20466;-72
2022/10/12 10:08:18;;;;;;;12.57;9.20;;;15.60;99.90;;;;;;5012714;28;20380;-71
2022/10/12 10:10:52;;;;;;;10.93;9.27;;;15.80;99.90;;;;;;5012907;28;20449;-71
2022/10/12 10:13:20;;;;;;;11.18;8.70;;;15.60;99.90;;;;;;4993030;28;20387;-72
2022/10/12 10:15:49;;;;;;;11.75;9.63;;;15.70;99.90;;;;;;5005186;28;20400;-72
2022/10/12 10:18:34;;;;;;;10.77;9.68;;;16.00;99.90;;;;;;5012787;28;20393;-72
2022/10/12 10:21:03;;;;;;;12.30;9.30;;;16.00;99.90;;;;;;4995090;28;20395;-71
2022/10/12 10:23:35;;;;;;;10.30;9.03;;;16.00;99.90;;;;;;4994016;28;20394;-72
2022/10/12 10:26:12;;;;;;;12.30;8.88;;;15.90;99.90;;;;;;4992930;28;20863;-73
2022/10/12 10:28:40;;;;;;;15.27;10.70;;;16.10;99.90;;;;;;4992982;28;20430;-72
2022/10/12 10:31:12;;;;;;;12.70;8.50;;;16.20;99.90;;;;;;5004051;28;21010;-71
2022/10/12 10:33:39;;;;;;;11.90;9.27;;;16.10;99.90;;;;;;5011938;28;20462;-72
2022/10/12 10:36:19;;;;;;;11.35;9.52;;;16.20;99.90;;;;;;5012372;28;20417;-72
2022/10/12 10:39:01;;;;;;;9.90;8.88;;;16.50;99.90;;;;;;5012494;28;20389;-73
2022/10/12 10:41:34;;;;;;;11.45;8.70;;;16.80;99.90;;;;;;5012159;28;20388;-72
2022/10/12 10:44:00;;;;;;;14.88;9.00;;;16.80;99.90;;;;;;4992261;28;20436;-72
2022/10/12 10:46:30;;;;;;;11.18;8.00;;;17.20;99.90;;;;;;5011774;28;20424;-72
2022/10/12 10:49:05;;;;;;;14.27;8.60;;;17.10;99.90;;;;;;5012877;28;20740;-72
2022/10/12 10:52:07;;;;;;;10.70;8.32;;;17.00;99.90;;;;;;5012051;28;20391;-72
2022/10/12 10:54:39;;;;;;;12.63;9.00;;;17.40;99.90;;;;;;4951120;29;20410;-72
2022/10/12 10:57:20;;;;;;;10.02;8.63;;;16.90;99.90;;;;;;4985202;28;20953;-73
2022/10/12 11:00:03;;;;;;;9.32;7.93;;;17.10;99.90;;;;;;5011878;28;20389;-73
2022/10/12 11:02:47;;;;;;;12.10;8.13;;;16.80;99.90;;;;;;5011370;28;20408;-73
2022/10/12 11:05:20;;;;;;;11.40;8.80;;;16.50;99.90;;;;;;5011568;28;20910;-73
2022/10/12 11:07:55;;;;;;;11.93;8.88;;;16.30;99.90;;;;;;5011812;28;20890;-74
2022/10/12 11:10:40;;;;;;;12.80;8.80;;;16.30;99.90;;;;;;5010798;28;21132;-73
2022/10/12 11:13:20;;;;;;;9.77;7.72;;;16.30;99.90;;;;;;5010733;28;20843;-73
2022/10/12 11:15:51;;;;;;;14.63;8.60;;;16.50;99.90;;;;;;5011556;28;20377;-73
2022/10/12 11:18:26;;;;;;;11.93;8.52;;;16.40;99.90;;;;;;5010691;28;20385;-73
2022/10/12 11:21:01;;;;;;;10.90;8.50;;;16.60;99.90;;;;;;5009589;28;20459;-73
2022/10/12 11:23:37;;;;;;;13.68;8.60;;;16.60;99.90;;;;;;4993181;28;20398;-73
2022/10/12 11:26:08;;;;;;;12.07;8.38;;;16.60;99.90;;;;;;4991934;28;20429;-73
2022/10/12 11:28:36;;;;;;;8.82;7.82;;;16.70;99.90;;;;;;4991823;28;20482;-73
2022/10/12 11:31:03;;;;;;;12.70;8.70;;;16.80;99.90;;;;;;5000406;28;20391;-74
2022/10/12 11:33:40;;;;;;;11.88;9.10;;;16.70;99.90;;;;;;5030579;28;20468;-73
2022/10/12 11:36:10;;;;;;;9.50;8.50;;;16.60;99.90;;;;;;5014062;28;20827;-73
2022/10/12 11:38:38;;;;;;;10.75;8.90;;;16.20;99.90;;;;;;5010799;28;20388;-73
2022/10/12 11:41:14;;;;;;;10.85;8.30;;;16.40;99.90;;;;;;5011024;28;20443;-72
2022/10/12 11:43:46;;;;;;;9.23;7.82;;;16.40;99.90;;;;;;4993067;28;20475;-73
2022/10/12 11:46:15;;;;;;;12.25;8.52;;;16.50;99.90;;;;;;5001488;28;20415;-73
2022/10/12 11:49:16;;;;;;;12.90;8.65;;;16.40;99.90;;;;;;5028623;28;20371;-72
2022/10/12 11:51:47;;;;;;;11.20;8.82;;;16.50;99.90;;;;;;4942471;28;20405;-73
2022/10/12 11:54:47;;;;;;;11.43;8.32;;;16.30;99.90;;;;;;4973490;28;20401;-72
2022/10/12 11:57:18;;;;;;;9.55;7.55;;;16.30;99.90;;;;;;4991161;28;20760;-72
2022/10/12 11:59:48;;;;;;;10.40;8.10;;;16.50;99.90;;;;;;4973832;28;20477;-72
2022/10/12 12:02:32;;;;;;;12.98;7.85;;;16.50;99.90;;;;;;4991044;28;20390;-71
2022/10/12 12:05:00;;;;;;;10.80;7.85;;;16.60;99.90;;;;;;4973421;28;20421;-71
2022/10/12 12:07:47;;;;;;;11.35;7.90;;;16.70;99.90;;;;;;5009735;28;20920;-72
2022/10/12 12:10:29;;;;;;;10.68;8.05;;;16.50;99.90;;;;;;4986826;28;20467;-72
2022/10/12 12:13:13;;;;;;;12.07;8.80;;;16.70;99.90;;;;;;5001749;28;20404;-72
2022/10/12 12:15:43;;;;;;;11.27;8.63;;;16.30;99.90;;;;;;4999186;28;20488;-71
2022/10/12 12:18:18;;;;;;;11.45;7.68;;;16.50;99.90;;;;;;5003823;28;21127;-72
2022/10/12 12:20:45;;;;;;;11.70;7.97;;;16.60;99.90;;;;;;4985894;28;20416;-72
2022/10/12 12:23:25;;;;;;;9.67;7.83;;;16.50;99.90;;;;;;5002659;28;20450;-72
2022/10/12 12:26:09;;;;;;;11.80;8.35;;;16.40;99.90;;;;;;5005946;28;20791;-72
2022/10/12 12:28:37;;;;;;;10.63;7.57;;;16.60;99.90;;;;;;5006472;28;20413;-72
2022/10/12 12:31:27;;;;;;;9.93;7.10;;;16.60;99.90;;;;;;5018564;28;20455;-72
2022/10/12 12:34:18;;;;;;;12.55;8.95;;;16.80;99.90;;;;;;5004186;28;20425;-72
2022/10/12 12:36:46;;;;;;;11.52;8.00;;;16.80;99.90;;;;;;5004685;28;20918;-72
2022/10/12 12:39:29;;;;;;;11.90;8.50;;;16.80;99.90;;;;;;5010438;28;20412;-73
2022/10/12 12:42:07;;;;;;;10.20;7.70;;;16.80;99.90;;;;;;4990755;28;20412;-73
2022/10/12 12:44:32;;;;;;;10.93;7.43;;;16.80;99.90;;;;;;5002496;28;20399;-73
2022/10/12 12:47:01;;;;;;;10.00;7.20;;;17.10;99.90;;;;;;5008093;28;20494;-73
2022/10/12 12:49:59;;;;;;;9.52;6.40;;;17.50;99.90;;;;;;5005629;28;20447;-73
2022/10/12 12:52:36;;;;;;;10.83;6.90;;;17.80;99.90;;;;;;5005152;28;20885;-74
2022/10/12 12:55:35;;;;;;;9.48;7.15;;;18.30;99.90;;;;;;4991371;28;20417;-73